Time;durP1;ratioP1;P1;durP2;ratioP2;P2;SDS_P1;SDS_P2;PMS_P1;PMS_P2;Temp;Humidity;BMP_temperature;BMP_pressure;BME280_temperature;BME280_humidity;BME280_pressure;Samples;Min_cycle;Max_cycle;Signal;HPM_P1;HPM_P2
2022/12/04 00:01:10;;;;;;;65.70;30.00;;;;;;;-0.37;91.37;101335.98;103146;1296;71457;-75
2022/12/04 00:03:37;;;;;;;62.50;29.10;;;;;;;-0.36;91.42;101331.60;103532;1300;59422;-75
2022/12/04 00:06:11;;;;;;;62.90;29.80;;;;;;;-0.36;91.46;101330.38;104375;1284;265626;-74
2022/12/04 00:08:56;;;;;;;69.10;30.40;;;;;;;-0.34;91.46;101331.13;105504;1287;73242;-75
2022/12/04 00:11:26;;;;;;;65.90;30.40;;;;;;;-0.31;91.58;101326.77;105016;1285;70175;-74
2022/12/04 00:13:53;;;;;;;71.50;31.60;;;;;;;-0.29;91.53;101327.16;104299;1301;72468;-74
2022/12/04 00:16:22;;;;;;;68.90;30.50;;;;;;;-0.26;91.57;101323.52;104793;1293;60570;-74
2022/12/04 00:18:49;;;;;;;70.00;31.80;;;;;;;-0.24;91.50;101320.29;104506;1288;59956;-73
2022/12/04 00:21:17;;;;;;;68.50;31.50;;;;;;;-0.23;91.55;101321.27;103940;1293;73610;-75
2022/12/04 00:23:43;;;;;;;64.00;30.20;;;;;;;-0.22;91.47;101321.89;104120;1301;69878;-75
2022/12/04 00:26:16;;;;;;;62.00;28.50;;;;;;;-0.24;91.42;101325.15;103645;1296;71757;-74
2022/12/04 00:28:43;;;;;;;74.70;30.90;;;;;;;-0.27;91.42;101325.98;104411;1292;61461;-74
2022/12/04 00:31:13;;;;;;;64.90;30.10;;;;;;;-0.27;91.50;101326.34;104079;1296;60486;-73
2022/12/04 00:33:41;;;;;;;67.40;29.70;;;;;;;-0.28;91.63;101321.91;104417;1292;73456;-75
2022/12/04 00:36:10;;;;;;;69.80;29.00;;;;;;;-0.28;91.52;101325.05;105503;1287;70073;-75
2022/12/04 00:38:38;;;;;;;68.30;29.50;;;;;;;-0.29;91.61;101324.55;105606;1292;71259;-75
2022/12/04 00:41:10;;;;;;;71.30;31.00;;;;;;;-0.28;91.68;101326.05;103046;1297;60991;-74
2022/12/04 00:43:37;;;;;;;64.90;29.60;;;;;;;-0.28;91.55;101320.85;104424;1292;59193;-74
2022/12/04 00:46:03;;;;;;;76.20;31.80;;;;;;;-0.29;91.51;101322.15;104806;1293;74137;-74
2022/12/04 00:48:30;;;;;;;72.70;31.10;;;;;;;-0.30;91.63;101318.21;103313;1299;71434;-73
2022/12/04 00:51:05;;;;;;;72.70;32.00;;;;;;;-0.31;91.74;101316.00;104138;1301;72762;-75
2022/12/04 00:53:32;;;;;;;69.50;30.60;;;;;;;-0.32;91.79;101315.17;103600;1296;59617;-75
2022/12/04 00:56:03;;;;;;;73.80;30.40;;;;;;;-0.32;91.88;101313.83;103217;1299;60454;-75
2022/12/04 00:58:29;;;;;;;73.10;31.00;;;;;;;-0.33;91.97;101317.35;103224;1294;72538;-74
2022/12/04 01:01:06;;;;;;;72.20;31.10;;;;;;;-0.36;91.95;101315.77;102967;1299;69565;-75
2022/12/04 01:03:32;;;;;;;77.20;30.90;;;;;;;-0.36;92.08;101315.23;103760;1291;71393;-75
2022/12/04 01:05:59;;;;;;;71.10;30.10;;;;;;;-0.35;92.13;101314.66;103763;1296;60262;-76
2022/12/04 01:08:26;;;;;;;75.10;31.00;;;;;;;-0.37;92.24;101315.30;104106;1288;60486;-75
2022/12/04 01:10:52;;;;;;;76.40;31.40;;;;;;;-0.37;92.23;101314.61;103291;1296;59729;-75
2022/12/04 01:13:19;;;;;;;72.30;31.00;;;;;;;-0.35;92.32;101314.16;103110;1296;61797;-75
2022/12/04 01:15:46;;;;;;;69.20;29.10;;;;;;;-0.35;92.29;101316.06;103020;1301;73668;-75
2022/12/04 01:18:13;;;;;;;70.70;30.50;;;;;;;-0.36;92.44;101311.77;103303;1296;60685;-75
2022/12/04 01:20:49;;;;;;;76.40;31.70;;;;;;;-0.37;92.45;101310.41;103509;1294;60372;-75
2022/12/04 01:23:16;;;;;;;73.10;30.90;;;;;;;-0.37;92.59;101305.57;104781;1293;73721;-75
2022/12/04 01:25:54;;;;;;;70.20;30.20;;;;;;;-0.36;92.69;101307.27;104059;1293;69867;-75
2022/12/04 01:28:21;;;;;;;73.10;31.10;;;;;;;-0.35;92.63;101307.52;103306;1296;71162;-75
2022/12/04 01:31:08;;;;;;;69.60;29.10;;;;;;;-0.33;92.90;101305.69;103295;1293;61740;-75
2022/12/04 01:33:36;;;;;;;72.80;29.70;;;;;;;-0.34;92.77;101300.90;103238;1293;61799;-75
2022/12/04 01:36:05;;;;;;;64.40;29.60;;;;;;;-0.35;92.84;101296.09;103508;1286;73654;-75
2022/12/04 01:38:32;;;;;;;69.40;29.50;;;;;;;-0.35;92.96;101295.35;103083;1294;71597;-73
2022/12/04 01:40:59;;;;;;;69.00;29.80;;;;;;;-0.35;93.11;101292.41;104303;1297;71591;-75
2022/12/04 01:43:27;;;;;;;67.50;28.60;;;;;;;-0.34;93.02;101293.76;103804;1286;60394;-74
2022/12/04 01:45:55;;;;;;;64.60;28.90;;;;;;;-0.32;93.11;101294.36;103135;1302;60509;-74
2022/12/04 01:48:29;;;;;;;65.90;28.00;;;;;;;-0.31;93.25;101290.97;103139;1296;74632;-74
2022/12/04 01:51:03;;;;;;;64.40;27.60;;;;;;;-0.30;93.20;101291.07;103365;1294;69910;-75
2022/12/04 01:53:30;;;;;;;69.80;30.10;;;;;;;-0.32;93.06;101288.27;102962;1294;71873;-75
2022/12/04 01:55:57;;;;;;;65.80;27.70;;;;;;;-0.33;93.23;101287.59;103381;1300;60342;-75
2022/12/04 01:58:30;;;;;;;66.60;28.30;;;;;;;-0.35;93.47;101291.36;103190;1296;60199;-75
2022/12/04 02:01:01;;;;;;;61.40;27.40;;;;;;;-0.36;93.43;101292.52;104675;1295;74850;-75
2022/12/04 02:03:34;;;;;;;61.50;26.40;;;;;;;-0.37;93.42;101292.89;103415;1291;70547;-75
2022/12/04 02:06:01;;;;;;;58.80;27.40;;;;;;;-0.38;93.67;101296.08;103016;1297;72459;-75
2022/12/04 02:08:28;;;;;;;59.20;26.70;;;;;;;-0.38;93.66;101294.34;103136;1302;60553;-75
2022/12/04 02:11:16;;;;;;;61.40;26.10;;;;;;;-0.37;93.77;101293.04;103475;1300;60494;-74
2022/12/04 02:13:56;;;;;;;62.30;27.00;;;;;;;-0.38;93.84;101289.45;103236;1293;72961;-75
2022/12/04 02:16:38;;;;;;;57.50;25.00;;;;;;;-0.38;93.89;101287.19;103121;1293;70804;-75
2022/12/04 02:19:17;;;;;;;56.90;25.90;;;;;;;-0.37;93.90;101287.34;104044;1292;72833;-75
2022/12/04 02:21:49;;;;;;;58.70;26.20;;;;;;;-0.36;94.00;101284.11;104261;1290;60565;-74
2022/12/04 02:24:19;;;;;;;55.90;26.00;;;;;;;-0.33;94.05;101287.80;103292;1297;59497;-74
2022/12/04 02:26:48;;;;;;;52.30;23.70;;;;;;;-0.32;94.08;101282.33;103057;1293;72297;-76
2022/12/04 02:29:37;;;;;;;54.00;23.80;;;;;;;-0.32;94.12;101281.30;103145;1301;70914;-75
2022/12/04 02:32:30;;;;;;;57.30;25.10;;;;;;;-0.35;94.16;101276.44;103513;1293;72041;-75
2022/12/04 02:35:15;;;;;;;58.90;25.80;;;;;;;-0.37;94.08;101269.92;103125;1295;62438;-75
2022/12/04 02:37:46;;;;;;;57.20;25.20;;;;;;;-0.36;94.18;101273.00;103660;1300;60474;-74
2022/12/04 02:40:27;;;;;;;51.80;23.60;;;;;;;-0.36;94.29;101274.38;104797;1294;72703;-75
2022/12/04 02:43:01;;;;;;;54.00;23.80;;;;;;;-0.34;94.36;101274.09;103465;1293;69593;-75
2022/12/04 02:45:38;;;;;;;56.20;24.90;;;;;;;-0.35;94.39;101269.83;103031;1301;71111;-75
2022/12/04 02:48:07;;;;;;;55.00;25.50;;;;;;;-0.33;94.49;101268.70;103053;1302;60630;-75
2022/12/04 02:50:39;;;;;;;51.00;23.00;;;;;;;-0.31;94.55;101268.04;103258;1293;60627;-74
2022/12/04 02:53:15;;;;;;;57.20;26.30;;;;;;;-0.30;94.51;101271.77;102826;1300;71382;-74
2022/12/04 02:55:47;;;;;;;54.20;24.60;;;;;;;-0.29;94.54;101256.77;103233;1289;69580;-76
2022/12/04 02:58:42;;;;;;;55.40;24.50;;;;;;;-0.29;94.52;101257.29;104336;1293;71643;-75
2022/12/04 03:01:22;;;;;;;50.80;23.50;;;;;;;-0.28;94.57;101254.80;104134;1294;60980;-75
2022/12/04 03:04:07;;;;;;;55.90;24.40;;;;;;;-0.29;94.64;101258.15;103104;1285;60452;-75
2022/12/04 03:06:38;;;;;;;52.80;23.00;;;;;;;-0.28;94.65;101258.44;103076;1303;71449;-75
2022/12/04 03:09:12;;;;;;;51.70;23.10;;;;;;;-0.27;94.78;101263.97;103136;1294;70545;-74
2022/12/04 03:11:41;;;;;;;54.70;25.50;;;;;;;-0.27;94.77;101262.90;102723;1302;71431;-75
2022/12/04 03:14:17;;;;;;;52.50;24.50;;;;;;;-0.27;94.89;101268.45;103232;1294;60410;-75
2022/12/04 03:16:47;;;;;;;56.60;25.20;;;;;;;-0.27;94.94;101263.31;103758;1293;60431;-74
2022/12/04 03:19:22;;;;;;;60.30;25.70;;;;;;;-0.26;94.99;101263.04;104203;1292;72859;-74
2022/12/04 03:21:57;;;;;;;58.00;26.10;;;;;;;-0.25;95.10;101262.97;102887;1301;70222;-75
2022/12/04 03:24:28;;;;;;;53.10;25.70;;;;;;;-0.24;95.20;101260.11;103286;1294;71225;-74
2022/12/04 03:27:03;;;;;;;57.90;27.00;;;;;;;-0.22;95.06;101266.64;103142;1294;60608;-75
2022/12/04 03:29:56;;;;;;;61.10;27.90;;;;;;;-0.24;95.07;101266.02;103621;1294;61223;-75
2022/12/04 03:32:32;;;;;;;58.60;27.60;;;;;;;-0.22;95.09;101261.20;103010;1301;71304;-75
2022/12/04 03:35:25;;;;;;;52.80;24.30;;;;;;;-0.21;95.28;101261.67;104078;1293;69564;-75
2022/12/04 03:38:09;;;;;;;59.30;27.40;;;;;;;-0.21;95.26;101259.95;103991;1293;72517;-75
2022/12/04 03:41:20;;;;;;;57.00;26.30;;;;;;;-0.20;95.20;101251.05;104000;1293;60522;-75
2022/12/04 03:43:56;;;;;;;53.90;26.20;;;;;;;-0.19;95.27;101243.35;103634;1299;59606;-74
2022/12/04 03:46:32;;;;;;;59.00;27.30;;;;;;;-0.16;95.33;101245.77;103437;1303;73834;-74
2022/12/04 03:49:28;;;;;;;57.30;27.90;;;;;;;-0.14;95.24;101246.86;102984;1301;71597;-75
2022/12/04 03:52:03;;;;;;;57.40;26.60;;;;;;;-0.09;95.32;101247.06;103479;1289;71114;-74
2022/12/04 03:54:41;;;;;;;58.10;28.50;;;;;;;-0.06;95.30;101244.46;104187;1294;59702;-74
2022/12/04 03:57:14;;;;;;;63.60;28.70;;;;;;;-0.04;95.20;101246.59;104723;1300;59346;-76
2022/12/04 04:00:07;;;;;;;57.40;27.10;;;;;;;-0.03;95.15;101246.36;102848;1302;73750;-74
2022/12/04 04:02:38;;;;;;;58.60;27.50;;;;;;;-0.03;95.15;101249.13;103264;1300;71402;-76
2022/12/04 04:05:09;;;;;;;60.90;29.00;;;;;;;-0.04;95.16;101249.54;103181;1300;71489;-76
2022/12/04 04:08:24;;;;;;;61.20;29.10;;;;;;;-0.04;95.12;101254.91;103391;1293;60493;-74
2022/12/04 04:10:44;;;;;;;59.70;28.10;;;;;;;-0.02;95.04;101254.13;103609;1300;60488;-75
2022/12/04 04:24:38;;;;;;;60.00;29.00;;;;;;;0.02;94.98;101251.60;103129;1294;60277;-74
2022/12/04 04:27:05;;;;;;;60.10;28.60;;;;;;;0.01;94.97;101255.34;103936;1297;72253;-75
2022/12/04 04:29:32;;;;;;;61.70;29.00;;;;;;;0.02;94.98;101253.54;103107;1301;60524;-75
2022/12/04 04:32:12;;;;;;;60.40;29.00;;;;;;;0.03;95.01;101256.28;103883;1293;70882;-75
2022/12/04 04:35:08;;;;;;;57.30;29.30;;;;;;;0.03;94.87;101256.96;103817;1295;60404;-75
2022/12/04 04:37:53;;;;;;;60.60;29.40;;;;;;;0.04;94.97;101251.18;103061;1300;60549;-74
2022/12/04 04:40:33;;;;;;;59.00;28.30;;;;;;;0.06;95.03;101248.44;103104;1293;73674;-74
2022/12/04 04:43:16;;;;;;;58.50;29.80;;;;;;;0.06;94.89;101250.34;103194;1299;71344;-74
2022/12/04 04:45:55;;;;;;;60.60;28.30;;;;;;;0.07;95.02;101248.55;103963;1300;71139;-75
2022/12/04 04:48:28;;;;;;;64.10;29.50;;;;;;;0.09;95.05;101247.05;102934;1299;59954;-74
2022/12/04 04:50:57;;;;;;;63.40;30.00;;;;;;;0.11;95.11;101256.49;104044;1300;60629;-74
2022/12/04 04:53:28;;;;;;;58.30;28.40;;;;;;;0.12;94.96;101255.20;103854;1284;73675;-74
2022/12/04 04:55:56;;;;;;;59.20;30.00;;;;;;;0.12;94.80;101256.57;103162;1293;69573;-76
2022/12/04 04:58:22;;;;;;;61.20;29.70;;;;;;;0.13;94.92;101254.30;103170;1301;72422;-75
2022/12/04 05:01:09;;;;;;;64.60;30.30;;;;;;;0.14;94.88;101249.65;103014;1293;60517;-74
2022/12/04 05:03:36;;;;;;;57.60;29.90;;;;;;;0.17;94.78;101247.25;103611;1292;61721;-75
2022/12/04 05:06:02;;;;;;;65.50;30.20;;;;;;;0.18;94.77;101248.56;103378;1300;73855;-76
2022/12/04 05:08:29;;;;;;;57.10;27.70;;;;;;;0.19;94.71;101249.55;104344;1294;59323;-75
2022/12/04 05:10:55;;;;;;;56.60;29.30;;;;;;;0.19;94.69;101247.27;103155;1292;61126;-74
2022/12/04 05:13:22;;;;;;;58.80;29.20;;;;;;;0.20;94.70;101248.77;103843;1293;62256;-75
2022/12/04 05:16:04;;;;;;;61.30;30.70;;;;;;;0.21;94.59;101247.85;103023;1294;60194;-73
2022/12/04 05:18:32;;;;;;;61.20;29.10;;;;;;;0.22;94.75;101250.76;103098;1302;73620;-75
2022/12/04 05:20:58;;;;;;;58.90;29.30;;;;;;;0.22;94.52;101257.20;103292;1299;68921;-74
2022/12/04 05:23:25;;;;;;;57.00;29.90;;;;;;;0.24;94.67;101265.05;104106;1301;60667;-75
2022/12/04 05:26:02;;;;;;;59.70;30.10;;;;;;;0.27;94.64;101260.35;103438;1294;60411;-75
2022/12/04 05:28:28;;;;;;;60.20;29.30;;;;;;;0.31;94.63;101266.04;103421;1302;59092;-74
2022/12/04 05:30:56;;;;;;;56.20;29.00;;;;;;;0.33;94.37;101267.29;104049;1296;59230;-75
2022/12/04 05:33:23;;;;;;;57.90;29.20;;;;;;;0.32;94.21;101262.46;103291;1301;70226;-75
2022/12/04 05:36:01;;;;;;;57.10;28.50;;;;;;;0.32;94.29;101265.11;102897;1294;73450;-74
2022/12/04 05:38:27;;;;;;;58.10;30.30;;;;;;;0.34;94.23;101263.77;103195;1299;61193;-75
2022/12/04 05:40:57;;;;;;;57.30;29.20;;;;;;;0.35;94.18;101265.80;103293;1296;61684;-76
2022/12/04 05:43:24;;;;;;;62.20;29.70;;;;;;;0.35;94.13;101264.54;103703;1301;73812;-74
2022/12/04 05:45:50;;;;;;;57.00;29.00;;;;;;;0.34;93.78;101259.73;103061;1293;69567;-74
2022/12/04 05:48:17;;;;;;;57.00;29.00;;;;;;;0.33;93.81;101256.87;104697;1292;71165;-74
2022/12/04 05:50:43;;;;;;;56.80;29.50;;;;;;;0.32;93.83;101253.45;103225;1300;60541;-73
2022/12/04 05:53:10;;;;;;;57.50;30.00;;;;;;;0.32;94.04;101250.98;103280;1301;60577;-73
2022/12/04 05:55:36;;;;;;;54.60;28.70;;;;;;;0.35;94.16;101254.83;102790;1300;60524;-74
2022/12/04 05:58:03;;;;;;;56.40;29.20;;;;;;;0.36;93.83;101258.77;103242;1295;60591;-74
2022/12/04 06:00:30;;;;;;;56.00;28.20;;;;;;;0.34;93.84;101259.72;103218;1292;60473;-74
2022/12/04 06:02:56;;;;;;;55.70;28.80;;;;;;;0.33;93.71;101261.17;104112;1301;62140;-74
2022/12/04 06:05:23;;;;;;;55.00;28.10;;;;;;;0.33;93.77;101258.92;104447;1292;59382;-74
2022/12/04 06:07:49;;;;;;;53.80;27.00;;;;;;;0.36;94.04;101261.71;103195;1293;61666;-75
2022/12/04 06:10:16;;;;;;;56.80;29.80;;;;;;;0.36;93.91;101259.08;103409;1301;61983;-74
2022/12/04 06:12:42;;;;;;;55.20;28.70;;;;;;;0.39;93.93;101262.57;103226;1294;60585;-74
2022/12/04 06:15:09;;;;;;;58.00;28.50;;;;;;;0.38;93.66;101263.50;102887;1283;60523;-75
2022/12/04 06:17:35;;;;;;;53.40;27.40;;;;;;;0.38;93.77;101264.01;103066;1297;60996;-75
2022/12/04 06:20:03;;;;;;;54.80;29.00;;;;;;;0.40;93.74;101274.33;103526;1298;60605;-75
2022/12/04 06:22:36;;;;;;;55.20;28.80;;;;;;;0.39;93.63;101271.46;103452;1300;70631;-75
2022/12/04 06:25:03;;;;;;;55.10;28.80;;;;;;;0.40;93.49;101269.30;104169;1298;59730;-75
2022/12/04 06:27:29;;;;;;;51.50;27.40;;;;;;;0.42;93.69;101270.95;103394;1293;60511;-73
2022/12/04 06:29:56;;;;;;;53.00;28.70;;;;;;;0.43;93.61;101271.74;103359;1297;60603;-74
2022/12/04 06:32:23;;;;;;;53.40;27.30;;;;;;;0.45;93.72;101270.05;103146;1300;73271;-75
2022/12/04 06:34:51;;;;;;;52.20;27.80;;;;;;;0.46;93.57;101268.59;103137;1300;71902;-74
2022/12/04 06:37:20;;;;;;;52.40;28.00;;;;;;;0.46;93.38;101271.22;103206;1294;70547;-75
2022/12/04 06:39:47;;;;;;;50.10;26.50;;;;;;;0.46;93.50;101266.88;103197;1298;60506;-74
2022/12/04 06:42:13;;;;;;;50.40;27.00;;;;;;;0.45;93.44;101265.69;104794;1301;59391;-74
2022/12/04 06:44:40;;;;;;;52.50;29.50;;;;;;;0.44;93.22;101267.85;103087;1300;60521;-75
2022/12/04 06:47:08;;;;;;;53.60;28.40;;;;;;;0.40;93.10;101271.22;103938;1299;60530;-74
2022/12/04 06:49:35;;;;;;;52.40;28.60;;;;;;;0.38;93.34;101271.35;103635;1294;71084;-74
2022/12/04 06:52:01;;;;;;;56.90;29.20;;;;;;;0.39;93.31;101274.09;102838;1302;61900;-75
2022/12/04 06:54:27;;;;;;;53.60;27.70;;;;;;;0.39;93.40;101274.73;103086;1301;60867;-74
2022/12/04 06:56:54;;;;;;;58.30;32.60;;;;;;;0.40;93.27;101274.52;103203;1301;60507;-75
2022/12/04 06:59:20;;;;;;;56.50;30.00;;;;;;;0.39;93.24;101275.27;104242;1292;59212;-75
2022/12/04 07:01:47;;;;;;;54.80;28.10;;;;;;;0.39;93.18;101279.48;103627;1293;60675;-75
2022/12/04 07:04:13;;;;;;;51.30;28.50;;;;;;;0.39;93.32;101278.23;104238;1299;60599;-74
2022/12/04 07:06:40;;;;;;;46.30;25.00;;;;;;;0.38;93.15;101284.20;103566;1294;60581;-74
2022/12/04 07:09:14;;;;;;;53.10;28.10;;;;;;;0.38;93.13;101288.56;103585;1300;74188;-73
2022/12/04 07:11:42;;;;;;;51.00;26.50;;;;;;;0.37;93.09;101284.60;103150;1296;69699;-74
2022/12/04 07:14:09;;;;;;;49.00;27.00;;;;;;;0.38;93.22;101286.95;103039;1299;70794;-74
2022/12/04 07:16:38;;;;;;;51.80;27.20;;;;;;;0.40;93.18;101284.81;103744;1299;62206;-74
2022/12/04 07:19:09;;;;;;;51.20;27.10;;;;;;;0.40;93.16;101289.63;104956;1295;60092;-74
2022/12/04 07:21:35;;;;;;;50.60;27.00;;;;;;;0.44;93.26;101297.41;103717;1293;72318;-74
2022/12/04 07:24:02;;;;;;;50.10;26.50;;;;;;;0.45;93.16;101293.37;103439;1284;70707;-74
2022/12/04 07:26:29;;;;;;;54.30;26.40;;;;;;;0.44;92.86;101286.48;103025;1296;71365;-74
2022/12/04 07:28:57;;;;;;;52.00;27.20;;;;;;;0.44;92.90;101290.46;103799;1301;60703;-74
2022/12/04 07:31:25;;;;;;;52.70;28.00;;;;;;;0.44;92.92;101286.13;102855;1301;61557;-74
2022/12/04 07:33:53;;;;;;;50.60;26.70;;;;;;;0.44;92.97;101282.65;103708;1292;73901;-74
2022/12/04 07:36:21;;;;;;;49.40;26.20;;;;;;;0.43;92.84;101288.44;104238;1295;69764;-74
2022/12/04 07:38:48;;;;;;;50.40;26.00;;;;;;;0.42;92.77;101284.70;103890;1297;72451;-74
2022/12/04 07:41:16;;;;;;;48.00;26.20;;;;;;;0.40;92.89;101283.77;102808;1294;60505;-74
2022/12/04 07:43:42;;;;;;;49.90;26.60;;;;;;;0.38;92.70;101279.83;103163;1300;61016;-74
2022/12/04 07:46:15;;;;;;;45.20;25.50;;;;;;;0.38;92.64;101278.44;103416;1301;74733;-73
2022/12/04 07:48:42;;;;;;;55.00;29.20;;;;;;;0.38;92.91;101282.64;103378;1299;70007;-75
2022/12/04 07:51:14;;;;;;;54.00;30.30;;;;;;;0.38;92.88;101281.21;103208;1302;60576;-75
2022/12/04 07:53:41;;;;;;;53.60;28.60;;;;;;;0.40;92.86;101281.66;103618;1294;60567;-75
2022/12/04 07:56:09;;;;;;;58.30;31.70;;;;;;;0.43;92.90;101280.63;104202;1294;60468;-76
2022/12/04 07:58:36;;;;;;;50.30;28.00;;;;;;;0.43;92.89;101286.70;103893;1299;72599;-75
2022/12/04 08:01:11;;;;;;;54.00;31.30;;;;;;;0.40;92.77;101285.66;103200;1300;71086;-76
2022/12/04 08:03:39;;;;;;;54.40;29.70;;;;;;;0.39;92.56;101283.09;103400;1301;71401;-73
2022/12/04 08:06:14;;;;;;;53.50;28.80;;;;;;;0.39;92.75;101284.49;103837;1299;60385;-74
2022/12/04 08:08:40;;;;;;;56.90;30.90;;;;;;;0.39;92.76;101280.84;104011;1298;60285;-74
2022/12/04 08:11:10;;;;;;;58.60;30.60;;;;;;;0.37;92.70;101278.84;103915;1300;60492;-74
2022/12/04 08:13:37;;;;;;;55.70;28.90;;;;;;;0.38;92.71;101276.39;103852;1299;70720;-74
2022/12/04 08:16:06;;;;;;;52.60;28.00;;;;;;;0.40;92.78;101274.17;104539;1291;71699;-74
2022/12/04 08:18:32;;;;;;;49.90;28.20;;;;;;;0.41;92.74;101278.27;103026;1302;60364;-74
2022/12/04 08:21:14;;;;;;;53.80;30.20;;;;;;;0.42;92.74;101283.97;104000;1300;60542;-74
2022/12/04 08:23:42;;;;;;;54.30;29.50;;;;;;;0.43;92.74;101279.90;103494;1299;72949;-74
2022/12/04 08:26:09;;;;;;;54.30;28.20;;;;;;;0.46;92.75;101279.06;104335;1300;69589;-74
2022/12/04 08:28:36;;;;;;;50.90;27.00;;;;;;;0.47;92.61;101286.49;103925;1296;72453;-75
2022/12/04 08:31:05;;;;;;;58.00;30.60;;;;;;;0.46;92.57;101282.31;104819;1299;60344;-75
2022/12/04 08:33:33;;;;;;;61.40;30.40;;;;;;;0.47;92.33;101285.05;104792;1295;59285;-75
2022/12/04 08:35:59;;;;;;;55.00;29.60;;;;;;;0.50;92.52;101283.14;103492;1299;73757;-75
2022/12/04 08:38:26;;;;;;;54.00;29.30;;;;;;;0.54;92.48;101284.83;103394;1292;70997;-75
2022/12/04 08:40:52;;;;;;;57.40;29.40;;;;;;;0.56;92.49;101285.38;104398;1295;71885;-74
2022/12/04 08:43:19;;;;;;;57.90;30.60;;;;;;;0.59;92.37;101287.11;103170;1299;61286;-75
2022/12/04 08:45:54;;;;;;;57.70;28.30;;;;;;;0.60;92.32;101287.02;102969;1301;60611;-75
2022/12/04 08:48:21;;;;;;;52.50;27.50;;;;;;;0.61;92.26;101289.38;104977;1295;73995;-75
2022/12/04 08:50:47;;;;;;;56.30;29.00;;;;;;;0.60;92.00;101282.65;104140;1294;71065;-74
2022/12/04 08:53:14;;;;;;;54.20;27.40;;;;;;;0.62;92.34;101279.45;104855;1290;58384;-74
2022/12/04 08:55:40;;;;;;;57.00;29.30;;;;;;;0.62;92.30;101276.61;104914;1292;60523;-74
2022/12/04 08:58:07;;;;;;;53.50;27.80;;;;;;;0.65;92.15;101276.44;103173;1299;60510;-74
2022/12/04 09:00:34;;;;;;;54.20;28.90;;;;;;;0.68;92.23;101275.41;103144;1292;60832;-74
2022/12/04 09:03:00;;;;;;;52.70;28.30;;;;;;;0.71;92.20;101274.34;103204;1297;70952;-74
2022/12/04 09:05:28;;;;;;;60.60;30.20;;;;;;;0.72;92.09;101278.95;103386;1292;61048;-74
2022/12/04 09:07:55;;;;;;;60.40;30.30;;;;;;;0.75;92.08;101280.66;102993;1299;60491;-74
2022/12/04 09:10:22;;;;;;;55.30;29.40;;;;;;;0.78;91.87;101277.00;103312;1302;60449;-75
2022/12/04 09:12:49;;;;;;;54.70;29.00;;;;;;;0.80;91.81;101275.50;104055;1300;72596;-75
2022/12/04 09:15:15;;;;;;;53.80;30.20;;;;;;;0.79;91.57;101272.59;103092;1302;60447;-74
2022/12/04 09:17:42;;;;;;;53.80;28.30;;;;;;;0.78;91.48;101284.99;103235;1298;60865;-74
2022/12/04 09:20:08;;;;;;;54.90;29.50;;;;;;;0.76;91.36;101284.83;103024;1300;60472;-74
2022/12/04 09:22:36;;;;;;;53.90;28.60;;;;;;;0.74;91.49;101291.71;103246;1288;61949;-74
2022/12/04 09:25:22;;;;;;;57.00;30.00;;;;;;;0.72;91.65;101295.88;102727;1302;73360;-75
2022/12/04 09:27:49;;;;;;;57.10;28.90;;;;;;;0.73;91.60;101296.49;103278;1299;60353;-74
2022/12/04 09:30:15;;;;;;;52.10;25.80;;;;;;;0.74;91.60;101296.23;104487;1299;58496;-73
2022/12/04 09:32:41;;;;;;;54.30;29.10;;;;;;;0.71;91.53;101294.02;102997;1293;60626;-74
2022/12/04 09:35:08;;;;;;;57.20;29.70;;;;;;;0.70;91.59;101294.75;103014;1305;60522;-74
2022/12/04 09:37:38;;;;;;;58.10;31.00;;;;;;;0.69;91.51;101296.22;103315;1299;60519;-74
2022/12/04 09:40:06;;;;;;;55.60;30.10;;;;;;;0.69;91.62;101289.80;103400;1294;69630;-74
2022/12/04 09:42:48;;;;;;;50.70;28.70;;;;;;;0.70;91.73;101283.48;103302;1299;71630;-74
2022/12/04 09:45:19;;;;;;;75.40;33.80;;;;;;;0.69;91.79;101287.49;102821;1292;60329;-73
2022/12/04 09:47:49;;;;;;;62.20;30.90;;;;;;;0.71;91.76;101286.73;104313;1291;60475;-74
2022/12/04 09:50:21;;;;;;;71.10;34.40;;;;;;;0.73;92.01;101287.07;104058;1295;73193;-74
2022/12/04 09:52:57;;;;;;;59.30;31.80;;;;;;;0.75;91.93;101286.80;103406;1302;70708;-73
2022/12/04 09:55:32;;;;;;;58.90;30.00;;;;;;;0.80;92.20;101285.79;103632;1299;72511;-75
2022/12/04 09:58:02;;;;;;;58.40;30.00;;;;;;;0.84;91.95;101280.67;103838;1295;61676;-74
2022/12/04 10:00:30;;;;;;;58.80;29.90;;;;;;;0.85;91.72;101283.23;104526;1295;60495;-74
2022/12/04 10:03:06;;;;;;;59.10;30.10;;;;;;;0.85;91.58;101282.88;103164;1302;73758;-74
2022/12/04 10:05:59;;;;;;;55.20;29.00;;;;;;;0.85;91.58;101276.98;104481;1295;69710;-73
2022/12/04 10:08:30;;;;;;;57.00;30.00;;;;;;;0.88;91.77;101278.82;104192;1295;73641;-74
2022/12/04 10:11:23;;;;;;;59.60;31.50;;;;;;;0.91;91.66;101281.11;104292;1299;62492;-74
2022/12/04 10:14:06;;;;;;;54.80;29.40;;;;;;;0.94;91.76;101277.92;103406;1297;60609;-74
2022/12/04 10:16:55;;;;;;;51.40;28.30;;;;;;;0.94;91.70;101269.77;104271;1299;73707;-75
2022/12/04 10:19:37;;;;;;;53.80;27.00;;;;;;;0.93;91.50;101270.35;103623;1293;69879;-75
2022/12/04 10:22:27;;;;;;;57.80;29.70;;;;;;;0.91;91.55;101269.39;104580;1293;71786;-75
2022/12/04 10:24:58;;;;;;;56.70;29.80;;;;;;;0.94;91.91;101271.84;103627;1296;61202;-74
2022/12/04 10:27:41;;;;;;;55.10;29.20;;;;;;;0.93;91.76;101268.39;104667;1300;59150;-74
2022/12/04 10:30:21;;;;;;;60.60;30.00;;;;;;;0.93;91.72;101267.40;104198;1301;72304;-75
2022/12/04 10:32:55;;;;;;;54.20;27.20;;;;;;;0.91;92.03;101266.98;103534;1296;69560;-75
2022/12/04 10:35:30;;;;;;;56.10;29.10;;;;;;;0.90;91.87;101267.73;104106;1292;71611;-75
2022/12/04 10:38:14;;;;;;;57.10;30.80;;;;;;;0.90;91.91;101266.02;104048;1301;60491;-75
2022/12/04 10:40:47;;;;;;;58.20;30.50;;;;;;;0.91;91.99;101264.73;104027;1300;60268;-75
2022/12/04 10:43:28;;;;;;;58.20;29.90;;;;;;;0.92;91.98;101261.89;103069;1293;72865;-75
2022/12/04 10:45:54;;;;;;;59.10;29.10;;;;;;;0.94;92.07;101268.89;105096;1292;69587;-75
2022/12/04 10:48:28;;;;;;;57.60;28.70;;;;;;;0.95;92.27;101271.27;103681;1292;60986;-74
2022/12/04 10:50:54;;;;;;;53.90;27.50;;;;;;;0.98;92.17;101265.16;103829;1300;60422;-75
2022/12/04 10:53:34;;;;;;;57.70;30.60;;;;;;;0.98;92.34;101264.59;104102;1299;60437;-75
2022/12/04 10:56:08;;;;;;;61.10;31.80;;;;;;;1.00;92.30;101268.14;103849;1293;73317;-74
2022/12/04 10:58:34;;;;;;;57.60;29.80;;;;;;;1.03;92.21;101269.73;104649;1294;70866;-75
2022/12/04 11:01:05;;;;;;;57.90;31.10;;;;;;;1.01;92.16;101267.02;103112;1291;60555;-74
2022/12/04 11:03:32;;;;;;;56.80;29.40;;;;;;;1.00;92.24;101262.40;104068;1293;60509;-75
2022/12/04 11:06:03;;;;;;;55.40;29.50;;;;;;;1.00;92.40;101264.68;103657;1299;60915;-75
2022/12/04 11:08:37;;;;;;;59.60;30.20;;;;;;;1.01;92.46;101257.11;103583;1302;72338;-73
2022/12/04 11:11:10;;;;;;;57.00;29.10;;;;;;;1.04;92.70;101251.52;103621;1293;69896;-75
2022/12/04 11:13:37;;;;;;;55.90;28.80;;;;;;;1.05;92.71;101246.92;104233;1298;71201;-74
2022/12/04 11:16:05;;;;;;;56.40;29.90;;;;;;;1.07;92.65;101247.66;104228;1296;62023;-74
2022/12/04 11:18:34;;;;;;;59.50;30.20;;;;;;;1.07;92.59;101241.38;103582;1291;59394;-74
2022/12/04 11:21:15;;;;;;;60.90;31.00;;;;;;;1.08;92.57;101238.36;103613;1300;72315;-74
2022/12/04 11:23:46;;;;;;;57.80;30.50;;;;;;;1.07;92.58;101234.77;104257;1295;69579;-74
2022/12/04 11:26:14;;;;;;;60.10;32.00;;;;;;;1.08;92.69;101230.00;103572;1301;72447;-74
2022/12/04 11:28:51;;;;;;;53.70;28.40;;;;;;;1.08;92.63;101226.86;104851;1288;60521;-74
2022/12/04 11:31:21;;;;;;;54.20;27.90;;;;;;;1.05;92.73;101224.14;103313;1293;59306;-74
2022/12/04 11:33:53;;;;;;;58.30;29.50;;;;;;;1.03;92.63;101224.25;104781;1293;74013;-74
2022/12/04 11:36:39;;;;;;;57.90;28.80;;;;;;;1.03;92.97;101221.98;103261;1302;68621;-74
2022/12/04 11:39:18;;;;;;;61.90;30.40;;;;;;;1.05;92.84;101223.08;103840;1300;72434;-72